Time;durP1;ratioP1;P1;durP2;ratioP2;P2;SDS_P1;SDS_P2;PMS_P1;PMS_P2;Temp;Humidity;BMP_temperature;BMP_pressure;BME280_temperature;BME280_humidity;BME280_pressure;Samples;Min_cycle;Max_cycle;Signal;HPM_P1;HPM_P2
2024/04/10 00:09:17;;;;;;;3.77;0.50;;;;;;;;;;22011134;26;20010;-45
2024/04/10 00:19:19;;;;;;;1.65;0.40;;;;;;;;;;22001156;26;20006;-46
2024/04/10 00:29:20;;;;;;;1.38;0.50;;;;;;;;;;22019994;26;20468;-46
2024/04/10 00:39:22;;;;;;;1.15;0.35;;;;;;;;;;22009668;26;20030;-46
2024/04/10 00:49:24;;;;;;;1.85;0.32;;;;;;;;;;22002951;26;20453;-46
2024/04/10 00:59:25;;;;;;;2.15;0.38;;;;;;;;;;21977269;26;20001;-45
2024/04/10 01:09:27;;;;;;;2.80;0.60;;;;;;;;;;21998386;26;20129;-42
2024/04/10 01:19:35;;;;;;;2.58;0.40;;;;;;;;;;22024232;26;20002;-42
2024/04/10 01:40:35;;;;;;;3.90;0.30;;;;;;;;;;21992979;26;20016;-43
2024/04/10 01:50:38;;;;;;;1.52;0.40;;;;;;;;;;21995648;26;20083;-44
2024/04/10 02:00:40;;;;;;;0.98;0.30;;;;;;;;;;21996481;26;20001;-42
2024/04/10 02:21:33;;;;;;;4.05;0.57;;;;;;;;;;21997334;26;20021;-45
2024/04/10 02:42:33;;;;;;;2.25;0.52;;;;;;;;;;22008530;26;19998;-43
2024/04/10 02:52:35;;;;;;;8.63;2.10;;;;;;;;;;21998738;26;20002;-42
2024/04/10 03:02:37;;;;;;;1.70;0.60;;;;;;;;;;22003395;26;20336;-42
2024/04/10 03:23:36;;;;;;;2.55;0.52;;;;;;;;;;21990329;26;20334;-42
2024/04/10 03:33:37;;;;;;;2.05;0.38;;;;;;;;;;22003335;26;20005;-43
2024/04/10 03:43:39;;;;;;;5.40;0.82;;;;;;;;;;21966968;26;20332;-45
2024/04/10 03:53:40;;;;;;;2.63;0.60;;;;;;;;;;22004130;26;21016;-44
2024/04/10 04:03:42;;;;;;;1.77;0.63;;;;;;;;;;21989069;26;20054;-43
2024/04/10 04:13:43;;;;;;;1.52;0.63;;;;;;;;;;21992880;26;20013;-44
2024/04/10 04:23:45;;;;;;;2.58;0.40;;;;;;;;;;21972524;26;20013;-44
2024/04/10 04:33:48;;;;;;;2.45;0.90;;;;;;;;;;21989427;26;20424;-45
2024/04/10 04:43:50;;;;;;;3.83;0.88;;;;;;;;;;21992534;26;20013;-45
2024/04/10 04:53:51;;;;;;;4.55;1.25;;;;;;;;;;22004944;26;20014;-43
2024/04/10 05:14:13;;;;;;;6.82;0.82;;;;;;;;;;22013111;26;20599;-42
2024/04/10 05:24:15;;;;;;;4.85;0.90;;;;;;;;;;21970744;26;20329;-42
2024/04/10 05:34:16;;;;;;;3.70;1.48;;;;;;;;;;21996073;26;20001;-42
2024/04/10 05:44:18;;;;;;;3.33;1.33;;;;;;;;;;21995458;26;20020;-44
2024/04/10 05:54:19;;;;;;;12.02;1.60;;;;;;;;;;22013991;26;20012;-42
2024/04/10 06:04:21;;;;;;;7.63;1.58;;;;;;;;;;21987778;26;20073;-45
2024/04/10 06:14:22;;;;;;;8.30;1.30;;;;;;;;;;22004140;26;20017;-42
2024/04/10 06:24:24;;;;;;;6.75;2.72;;;;;;;;;;22007563;26;20002;-43
2024/04/10 06:34:26;;;;;;;7.03;2.00;;;;;;;;;;22001144;26;20327;-43
2024/04/10 06:44:27;;;;;;;6.85;1.40;;;;;;;;;;21983673;26;20014;-42
2024/04/10 06:54:29;;;;;;;10.18;2.03;;;;;;;;;;21983417;26;20095;-43
2024/04/10 07:04:31;;;;;;;5.75;1.70;;;;;;;;;;21995421;26;20005;-42
2024/04/10 07:14:36;;;;;;;8.13;1.77;;;;;;;;;;21981993;26;20001;-44
2024/04/10 07:25:30;;;;;;;7.75;1.77;;;;;;;;;;21993528;26;20045;-45
2024/04/10 07:35:32;;;;;;;7.13;2.33;;;;;;;;;;21968218;26;20765;-46
2024/04/10 07:45:34;;;;;;;8.20;1.88;;;;;;;;;;21958387;26;20038;-46
2024/04/10 07:55:36;;;;;;;5.18;1.25;;;;;;;;;;21947731;26;20452;-45
2024/04/10 08:05:38;;;;;;;10.13;1.75;;;;;;;;;;21947380;26;20009;-46
2024/04/10 08:15:39;;;;;;;5.47;1.20;;;;;;;;;;21965704;26;20002;-45
2024/04/10 08:25:41;;;;;;;2.83;0.82;;;;;;;;;;21992552;26;20012;-52
2024/04/10 08:35:43;;;;;;;6.50;1.50;;;;;;;;;;21979267;26;20088;-49
2024/04/10 08:45:45;;;;;;;4.70;1.17;;;;;;;;;;21966709;26;20012;-51
2024/04/10 08:55:46;;;;;;;6.25;1.30;;;;;;;;;;21976237;26;20017;-51
2024/04/10 09:05:48;;;;;;;5.30;1.10;;;;;;;;;;21970300;26;20037;-52
2024/04/10 09:15:57;;;;;;;8.85;1.13;;;;;;;;;;21997268;26;20014;-51
2024/04/10 09:25:58;;;;;;;4.63;1.25;;;;;;;;;;22000612;26;20425;-52
2024/04/10 09:36:01;;;;;;;8.45;2.67;;;;;;;;;;21973710;26;20076;-50
2024/04/10 09:46:03;;;;;;;7.80;1.70;;;;;;;;;;21973388;26;20001;-56
2024/04/10 09:56:05;;;;;;;5.30;1.90;;;;;;;;;;21948810;26;20020;-54
2024/04/10 10:06:08;;;;;;;11.13;2.00;;;;;;;;;;21970757;26;20076;-53
2024/04/10 10:16:10;;;;;;;9.93;1.88;;;;;;;;;;21990071;26;20062;-53
2024/04/10 10:26:16;;;;;;;8.25;1.80;;;;;;;;;;21973286;26;20018;-51
2024/04/10 10:36:18;;;;;;;11.55;2.00;;;;;;;;;;22007997;26;20030;-52
2024/04/10 10:46:19;;;;;;;6.05;1.95;;;;;;;;;;21969970;26;20009;-53
2024/04/10 10:56:24;;;;;;;5.65;1.85;;;;;;;;;;21967456;26;20016;-53
2024/04/10 11:06:27;;;;;;;5.03;1.58;;;;;;;;;;21959740;26;20010;-53
2024/04/10 11:16:31;;;;;;;5.07;1.25;;;;;;;;;;21968324;26;20369;-55
2024/04/10 11:26:33;;;;;;;5.82;1.58;;;;;;;;;;21964713;26;20515;-54
2024/04/10 11:36:35;;;;;;;4.65;1.08;;;;;;;;;;21967345;26;20774;-55
2024/04/10 11:46:38;;;;;;;7.18;1.73;;;;;;;;;;21979949;26;20017;-51
2024/04/10 11:56:39;;;;;;;8.13;2.42;;;;;;;;;;21966089;26;20020;-52
2024/04/10 12:06:41;;;;;;;8.52;2.08;;;;;;;;;;21961375;26;20320;-53
2024/04/10 12:16:42;;;;;;;7.75;1.52;;;;;;;;;;21966191;26;20088;-55
2024/04/10 12:26:45;;;;;;;6.50;1.60;;;;;;;;;;21961688;26;20026;-53
2024/04/10 12:47:09;;;;;;;4.65;1.48;;;;;;;;;;21959253;26;20020;-54
2024/04/10 12:57:13;;;;;;;10.20;1.80;;;;;;;;;;21971596;26;20460;-54
2024/04/10 13:07:16;;;;;;;4.00;1.73;;;;;;;;;;21975350;26;20018;-55
2024/04/10 13:17:17;;;;;;;6.35;1.70;;;;;;;;;;21975523;26;20020;-54
2024/04/10 13:27:19;;;;;;;5.13;2.03;;;;;;;;;;21988575;26;20059;-54
2024/04/10 13:37:20;;;;;;;2.95;1.38;;;;;;;;;;21980942;26;20459;-53
2024/04/10 13:47:23;;;;;;;5.05;1.60;;;;;;;;;;21947113;26;20321;-51
2024/04/10 13:57:28;;;;;;;6.22;1.30;;;;;;;;;;21963841;26;20006;-53
2024/04/10 14:07:29;;;;;;;9.07;1.75;;;;;;;;;;21989607;26;20002;-53
2024/04/10 14:17:31;;;;;;;9.77;2.20;;;;;;;;;;21978309;26;20005;-53
2024/04/10 14:27:32;;;;;;;6.10;2.20;;;;;;;;;;21984299;26;20408;-54
2024/04/10 14:37:34;;;;;;;6.00;1.50;;;;;;;;;;21970736;26;20083;-55
2024/04/10 14:47:37;;;;;;;6.88;1.85;;;;;;;;;;21946993;26;20013;-52
2024/04/10 14:57:38;;;;;;;6.22;1.63;;;;;;;;;;21970342;26;20014;-55
2024/04/10 15:07:40;;;;;;;7.72;2.05;;;;;;;;;;21964867;26;20006;-52
2024/04/10 15:17:41;;;;;;;4.85;1.65;;;;;;;;;;21966795;26;20047;-53
2024/04/10 15:27:43;;;;;;;6.65;1.23;;;;;;;;;;21964360;26;20071;-50
2024/04/10 15:37:46;;;;;;;4.40;1.02;;;;;;;;;;21962949;26;20010;-51
2024/04/10 15:47:47;;;;;;;3.60;1.00;;;;;;;;;;21968451;26;20009;-53
2024/04/10 15:57:50;;;;;;;5.05;0.85;;;;;;;;;;21986206;26;20006;-52
2024/04/10 16:07:52;;;;;;;3.58;0.70;;;;;;;;;;21951824;26;20010;-44
2024/04/10 16:17:54;;;;;;;4.00;0.60;;;;;;;;;;21970412;26;20006;-46
2024/04/10 16:27:56;;;;;;;3.88;0.60;;;;;;;;;;21961880;26;20016;-45
2024/04/10 16:37:58;;;;;;;3.03;0.47;;;;;;;;;;21973761;26;20009;-44
2024/04/10 16:47:59;;;;;;;3.65;0.43;;;;;;;;;;21973430;26;20008;-50
2024/04/10 16:58:01;;;;;;;2.15;0.47;;;;;;;;;;21974214;26;20020;-48
2024/04/10 17:08:07;;;;;;;1.60;0.57;;;;;;;;;;21996501;26;20438;-48
2024/04/10 17:28:29;;;;;;;4.35;0.73;;;;;;;;;;21957650;26;20023;-49
2024/04/10 17:38:32;;;;;;;2.58;0.73;;;;;;;;;;21959772;26;20017;-49
2024/04/10 17:48:35;;;;;;;4.80;2.08;;;;;;;;;;21956416;26;20099;-48
2024/04/10 17:58:37;;;;;;;4.10;0.73;;;;;;;;;;21998730;26;20037;-50
2024/04/10 18:08:40;;;;;;;2.08;0.50;;;;;;;;;;21993086;26;20001;-48
2024/04/10 18:18:41;;;;;;;4.10;1.02;;;;;;;;;;21951724;26;20020;-47
2024/04/10 18:28:44;;;;;;;5.85;2.53;;;;;;;;;;21958973;26;20001;-46
2024/04/10 18:38:47;;;;;;;4.45;1.58;;;;;;;;;;22004392;26;20083;-49
2024/04/10 18:48:48;;;;;;;7.32;2.15;;;;;;;;;;21968910;26;20075;-47
2024/04/10 18:58:50;;;;;;;4.10;1.23;;;;;;;;;;21969075;26;20017;-48
2024/04/10 19:08:51;;;;;;;3.92;1.33;;;;;;;;;;21961101;26;20035;-49
2024/04/10 19:18:53;;;;;;;2.88;1.10;;;;;;;;;;21941029;26;20010;-48
2024/04/10 19:28:54;;;;;;;2.90;0.75;;;;;;;;;;21979091;26;20006;-50
2024/04/10 19:40:34;;;;;;;2.78;1.20;;;;;;;;;;22761442;25;20386;-48
2024/04/10 19:50:36;;;;;;;2.78;0.70;;;;;;;;;;22613986;26;20010;-49
2024/04/10 20:11:27;;;;;;;4.75;1.10;;;;;;;;;;22448299;26;20016;-48
2024/04/10 20:21:28;;;;;;;4.10;1.58;;;;;;;;;;22403297;26;20015;-47
2024/04/10 20:31:32;;;;;;;6.70;1.00;;;;;;;;;;22395228;26;20443;-46
2024/04/10 20:41:33;;;;;;;4.07;1.40;;;;;;;;;;22351007;26;20007;-49
2024/04/10 20:51:36;;;;;;;2.20;0.75;;;;;;;;;;22361211;26;20014;-44
2024/04/10 21:01:37;;;;;;;2.92;0.70;;;;;;;;;;22373821;26;20030;-44
2024/04/10 22:14:19;;;;;;;5.50;0.95;;;;;;;;;;22341949;26;20021;-46
2024/04/10 22:24:21;;;;;;;3.92;0.98;;;;;;;;;;22331554;26;20018;-46
2024/04/10 22:34:25;;;;;;;2.50;0.75;;;;;;;;;;22344391;26;20383;-45
2024/04/10 22:44:27;;;;;;;4.65;0.90;;;;;;;;;;22367011;26;20015;-45
2024/04/10 22:54:29;;;;;;;3.88;1.10;;;;;;;;;;22362366;26;20035;-44
2024/04/10 23:04:30;;;;;;;5.55;1.08;;;;;;;;;;22370748;26;20430;-44
2024/04/10 23:14:32;;;;;;;2.38;0.82;;;;;;;;;;22361943;26;20010;-48
2024/04/10 23:24:33;;;;;;;2.28;0.65;;;;;;;;;;22355960;26;20038;-46
2024/04/10 23:34:35;;;;;;;2.17;0.70;;;;;;;;;;22371473;26;20402;-46
2024/04/10 23:44:38;;;;;;;3.65;0.80;;;;;;;;;;22344683;26;20323;-52
2024/04/10 23:54:39;;;;;;;6.50;0.85;;;;;;;;;;22353489;26;20090;-45
